Springfield, South Dakota
Current Conditions -  °F | °C
As of 10:55 AM on Friday 28 Nov 2014 (Local Time) from KYKN Reporting Station
Clear Clear  
Wind Chill: -2°   Ceiling: Unl
Heat Index:   Visibility: 10mi
Dew Point: -4°   Wind: 7mph
Humidity: 70%   Direction: 70°ENE
Pressure: 29.78"   Gusts: NA
Location:  42.85°N, 97.9°W
Report Text: KYKN 281655Z AUTO 07006KT 10SM CLR 01/M04 A2978 RMK AO1
Loading
Personal Weather Stations






























Interactive Weather Map New forecast layout! Learn more

10-Day Weather Forecast

Advertisements
Track Severe Weather on mobile